METAR Data
IDs: Format: Raw Decoded Include TAF

Data at: 1219 UTC 23 Mar 2019

METAR for:PASD (Sand Point Arpt, AK, US)
Text:PASD 231156Z AUTO 34005KT 10SM BKN035 OVC065 04/02 A2935 RMK AO2 RAB08E26 SLP940 6//// 7//// T00390022 10044 20039 51033 PNO $
Temperature: 3.9°C ( 39°F)
Dewpoint: 2.2°C ( 36°F) [RH = 89%]
Pressure (altimeter):29.35 inches Hg ( 994.0 mb) [Sea level pressure: 994.0 mb]
Winds:from the NNW (340 degrees) at 6 MPH (5 knots; 2.6 m/s)
Visibility:10 or more sm (16+ km)
Ceiling:3500 feet AGL
Clouds: broken clouds at 3500 feet AGL, overcast cloud deck at 6500 feet AGL
QC Flag:automated observation with no human augmentation; SOME DATA ABOVE MAY BE INACCURATE!!!"$" is an indication the sensor requires maintenance.
Text:PASD 231056Z AUTO 35006KT 10SM BKN037 OVC044 04/02 A2932 RMK AO2 SLP931 T00390022 PNO $
Temperature: 3.9°C ( 39°F)
Dewpoint: 2.2°C ( 36°F) [RH = 89%]
Pressure (altimeter):29.32 inches Hg ( 993.0 mb) [Sea level pressure: 993.1 mb]
Winds:from the N (350 degrees) at 7 MPH (6 knots; 3.1 m/s)
Visibility:10 or more sm (16+ km)
Ceiling:3700 feet AGL
Clouds: broken clouds at 3700 feet AGL, overcast cloud deck at 4400 feet AGL
QC Flag:automated observation with no human augmentation; SOME DATA ABOVE MAY BE INACCURATE!!!"$" is an indication the sensor requires maintenance.
Text:PASD 230956Z AUTO 31005KT 10SM OVC050 04/02 A2928 RMK AO2 RAB01E18B40E52 SLP918 T00390022 PNO $
Temperature: 3.9°C ( 39°F)
Dewpoint: 2.2°C ( 36°F) [RH = 89%]
Pressure (altimeter):29.28 inches Hg ( 991.6 mb) [Sea level pressure: 991.8 mb]
Winds:from the NW (310 degrees) at 6 MPH (5 knots; 2.6 m/s)
Visibility:10 or more sm (16+ km)
Ceiling:5000 feet AGL
Clouds: overcast cloud deck at 5000 feet AGL
QC Flag:automated observation with no human augmentation; SOME DATA ABOVE MAY BE INACCURATE!!!"$" is an indication the sensor requires maintenance.
Text:PASD 230942Z AUTO 33004KT 10SM -RA SCT024 SCT035 OVC055 04/02 A2927 RMK AO2 RAB01E18B40 PNO $
Temperature: 4.0°C ( 39°F)
Dewpoint: 2.0°C ( 36°F) [RH = 87%]
Pressure (altimeter):29.27 inches Hg ( 991.3 mb)
Winds:from the NNW (330 degrees) at 5 MPH (4 knots; 2.1 m/s)
Visibility:10 or more sm (16+ km)
Ceiling:5500 feet AGL
Clouds: scattered clouds at 2400 feet AGL, scattered clouds at 3500 feet AGL, overcast cloud deck at 5500 feet AGL
Weather:-RA (light rain)
QC Flag:automated observation with no human augmentation; SOME DATA ABOVE MAY BE INACCURATE!!!"$" is an indication the sensor requires maintenance.
Text:PASD 230856Z AUTO 31003KT 10SM OVC022 04/02 A2925 RMK AO2 SLP907 6//// T00390022 400670022 51037 PNO $
Temperature: 3.9°C ( 39°F)
Dewpoint: 2.2°C ( 36°F) [RH = 89%]
Pressure (altimeter):29.25 inches Hg ( 990.6 mb) [Sea level pressure: 990.7 mb]
Winds:from the NW (310 degrees) at 3 MPH (3 knots; 1.5 m/s)
Visibility:10 or more sm (16+ km)
Ceiling:2200 feet AGL
Clouds: overcast cloud deck at 2200 feet AGL
QC Flag:automated observation with no human augmentation; SOME DATA ABOVE MAY BE INACCURATE!!!"$" is an indication the sensor requires maintenance.

TAF for:PASD (Sand Point Arpt, AK, US) issued at 1137 UTC 23 Mar 2019
Text:PASD 231137Z 2312/2412 35008KT P6SM -RA OVC040
Forecast period:1200 UTC 23 March 2019 to 0600 UTC 24 March 2019
Forecast type:FROM: standard forecast or significant change
Winds:from the N (350 degrees) at 9 MPH (8 knots; 4.1 m/s)
Visibility:6 or more sm (10+ km)
Ceiling:4000 feet AGL
Clouds: overcast cloud deck at 4000 feet AGL
Weather:-RA (light rain)
Text:TEMPO 2312/2316 P6SM -RA OVC025
Forecast period:1200 to 1600 UTC 23 March 2019
Forecast type:TEMPORARY: The following changes expected for less than half the time period
Visibility:6 or more sm (10+ km)
Ceiling:2500 feet AGL
Clouds: overcast cloud deck at 2500 feet AGL
Weather:-RA (light rain)
Text:FM240600 11004KT P6SM BKN050 AMD LTD TO CLD VIS AND WIND
Forecast period:0600 to 1200 UTC 24 March 2019
Forecast type:FROM: standard forecast or significant change
Winds:from the ESE (110 degrees) at 5 MPH (4 knots; 2.1 m/s)
Visibility:6 or more sm (10+ km)
Ceiling:5000 feet AGL
Clouds: broken clouds at 5000 feet AGL